Norwell, Massachusetts
Current Conditions -  °F | °C
As of 10:35 AM on Saturday 20 Dec 2014 (Local Time) from KGHG Reporting Station
Light Snow Light Snow  
Wind Chill: 26°   Ceiling: 800
Heat Index: 34°   Visibility: 4mi
Dew Point: 32°   Wind: 10mph
Humidity: 93%   Direction: 340°NNW
Pressure: 30.28"   Gusts: NA
Location:  42.16°N, 70.79°W
Report Text: KGHG 201535Z AUTO 34009KT 010V350 4SM -SN SCT002 OVC008 01/00 A3028 RMK AO2
Loading
Personal Weather Stations






























Interactive Weather Map New forecast layout! Learn more

10-Day Weather Forecast

Advertisements
Track Severe Weather on mobile